sensor_id;sensor_type;location;lat;lon;timestamp;temperature;humidity
78649;DHT22;67962;47.310;9.642;2023-07-31T00:01:23;20.40;55.90
78649;DHT22;67962;47.310;9.642;2023-07-31T00:03:49;20.30;55.90
78649;DHT22;67962;47.310;9.642;2023-07-31T00:06:15;20.30;55.60
78649;DHT22;67962;47.310;9.642;2023-07-31T00:08:40;20.20;56.20
78649;DHT22;67962;47.310;9.642;2023-07-31T00:11:06;20.20;55.90
78649;DHT22;67962;47.310;9.642;2023-07-31T00:13:32;20.20;56.40
78649;DHT22;67962;47.310;9.642;2023-07-31T00:15:57;20.10;56.70
78649;DHT22;67962;47.310;9.642;2023-07-31T00:18:23;20.10;57.00
78649;DHT22;67962;47.310;9.642;2023-07-31T00:20:49;20.10;56.90
78649;DHT22;67962;47.310;9.642;2023-07-31T00:23:15;20.00;57.00
78649;DHT22;67962;47.310;9.642;2023-07-31T00:25:41;20.00;57.30
78649;DHT22;67962;47.310;9.642;2023-07-31T00:28:06;19.90;57.50
78649;DHT22;67962;47.310;9.642;2023-07-31T00:30:32;19.90;57.50
78649;DHT22;67962;47.310;9.642;2023-07-31T00:32:58;19.90;57.70
78649;DHT22;67962;47.310;9.642;2023-07-31T00:35:24;19.70;57.90
78649;DHT22;67962;47.310;9.642;2023-07-31T00:37:49;19.70;58.00
78649;DHT22;67962;47.310;9.642;2023-07-31T00:40:15;19.70;58.00
78649;DHT22;67962;47.310;9.642;2023-07-31T00:42:41;19.70;58.90
78649;DHT22;67962;47.310;9.642;2023-07-31T00:45:06;19.60;59.80
78649;DHT22;67962;47.310;9.642;2023-07-31T00:47:32;19.60;60.00
78649;DHT22;67962;47.310;9.642;2023-07-31T00:49:58;19.50;60.30
78649;DHT22;67962;47.310;9.642;2023-07-31T00:52:24;19.40;60.80
78649;DHT22;67962;47.310;9.642;2023-07-31T00:54:50;19.30;61.40
78649;DHT22;67962;47.310;9.642;2023-07-31T00:57:16;19.30;61.60
78649;DHT22;67962;47.310;9.642;2023-07-31T00:59:41;19.10;61.90
78649;DHT22;67962;47.310;9.642;2023-07-31T01:02:07;19.00;61.80
78649;DHT22;67962;47.310;9.642;2023-07-31T01:04:33;18.80;62.10
78649;DHT22;67962;47.310;9.642;2023-07-31T01:07:44;18.80;62.20
78649;DHT22;67962;47.310;9.642;2023-07-31T01:10:06;18.60;62.60
78649;DHT22;67962;47.310;9.642;2023-07-31T01:12:34;18.60;62.80
78649;DHT22;67962;47.310;9.642;2023-07-31T01:17:29;18.40;63.90
78649;DHT22;67962;47.310;9.642;2023-07-31T01:20:00;18.40;64.00
78649;DHT22;67962;47.310;9.642;2023-07-31T01:28:03;18.40;63.70
78649;DHT22;67962;47.310;9.642;2023-07-31T01:30:33;18.50;63.70
78649;DHT22;67962;47.310;9.642;2023-07-31T01:33:01;18.50;63.90
78649;DHT22;67962;47.310;9.642;2023-07-31T01:35:33;18.40;64.10
78649;DHT22;67962;47.310;9.642;2023-07-31T01:37:59;18.30;64.30
78649;DHT22;67962;47.310;9.642;2023-07-31T01:40:25;18.20;64.30
78649;DHT22;67962;47.310;9.642;2023-07-31T01:42:50;18.20;65.00
78649;DHT22;67962;47.310;9.642;2023-07-31T01:45:16;18.10;65.30
78649;DHT22;67962;47.310;9.642;2023-07-31T01:47:42;18.10;65.20
78649;DHT22;67962;47.310;9.642;2023-07-31T01:50:08;18.10;65.40
78649;DHT22;67962;47.310;9.642;2023-07-31T01:52:33;18.00;65.70
78649;DHT22;67962;47.310;9.642;2023-07-31T01:54:59;17.90;65.90
78649;DHT22;67962;47.310;9.642;2023-07-31T01:57:25;17.80;66.00
78649;DHT22;67962;47.310;9.642;2023-07-31T01:59:50;17.80;66.20
78649;DHT22;67962;47.310;9.642;2023-07-31T02:02:19;17.70;66.20
78649;DHT22;67962;47.310;9.642;2023-07-31T02:04:45;17.70;66.50
78649;DHT22;67962;47.310;9.642;2023-07-31T02:07:10;17.70;67.00
78649;DHT22;67962;47.310;9.642;2023-07-31T02:09:36;17.80;66.90
78649;DHT22;67962;47.310;9.642;2023-07-31T02:12:02;17.80;66.40
78649;DHT22;67962;47.310;9.642;2023-07-31T02:14:28;17.90;65.90
78649;DHT22;67962;47.310;9.642;2023-07-31T02:16:53;17.90;65.80
78649;DHT22;67962;47.310;9.642;2023-07-31T02:19:19;17.90;66.10
78649;DHT22;67962;47.310;9.642;2023-07-31T02:21:45;17.90;66.40
78649;DHT22;67962;47.310;9.642;2023-07-31T02:24:11;17.90;66.50
78649;DHT22;67962;47.310;9.642;2023-07-31T02:26:36;17.80;66.50
78649;DHT22;67962;47.310;9.642;2023-07-31T02:29:02;17.80;66.80
78649;DHT22;67962;47.310;9.642;2023-07-31T02:31:28;17.70;66.80
78649;DHT22;67962;47.310;9.642;2023-07-31T02:33:54;17.60;67.20
78649;DHT22;67962;47.310;9.642;2023-07-31T02:36:20;17.60;67.30
78649;DHT22;67962;47.310;9.642;2023-07-31T02:38:45;17.50;67.40
78649;DHT22;67962;47.310;9.642;2023-07-31T02:41:11;17.40;67.40
78649;DHT22;67962;47.310;9.642;2023-07-31T02:43:37;17.30;67.80
78649;DHT22;67962;47.310;9.642;2023-07-31T02:46:02;17.20;68.10
78649;DHT22;67962;47.310;9.642;2023-07-31T02:48:28;17.10;68.70
78649;DHT22;67962;47.310;9.642;2023-07-31T02:50:54;17.20;68.90
78649;DHT22;67962;47.310;9.642;2023-07-31T02:53:19;17.20;68.70
78649;DHT22;67962;47.310;9.642;2023-07-31T02:55:45;17.30;68.40
78649;DHT22;67962;47.310;9.642;2023-07-31T02:58:11;17.20;68.30
78649;DHT22;67962;47.310;9.642;2023-07-31T03:00:42;17.20;68.60
78649;DHT22;67962;47.310;9.642;2023-07-31T03:03:08;17.20;68.50
78649;DHT22;67962;47.310;9.642;2023-07-31T03:05:33;17.10;68.60
78649;DHT22;67962;47.310;9.642;2023-07-31T03:07:59;17.20;69.20
78649;DHT22;67962;47.310;9.642;2023-07-31T03:10:25;17.20;69.10
78649;DHT22;67962;47.310;9.642;2023-07-31T03:12:50;17.20;69.00
78649;DHT22;67962;47.310;9.642;2023-07-31T03:15:16;17.30;69.00
78649;DHT22;67962;47.310;9.642;2023-07-31T03:17:42;17.30;68.90
78649;DHT22;67962;47.310;9.642;2023-07-31T03:20:08;17.30;68.90
78649;DHT22;67962;47.310;9.642;2023-07-31T03:22:34;17.40;68.80
78649;DHT22;67962;47.310;9.642;2023-07-31T03:25:01;17.40;68.80
78649;DHT22;67962;47.310;9.642;2023-07-31T03:27:27;17.40;68.80
78649;DHT22;67962;47.310;9.642;2023-07-31T03:29:52;17.50;68.60
78649;DHT22;67962;47.310;9.642;2023-07-31T03:32:18;17.50;68.20
78649;DHT22;67962;47.310;9.642;2023-07-31T03:34:44;17.40;68.20
78649;DHT22;67962;47.310;9.642;2023-07-31T03:37:09;17.40;68.20
78649;DHT22;67962;47.310;9.642;2023-07-31T03:39:35;17.50;68.20
78649;DHT22;67962;47.310;9.642;2023-07-31T03:42:01;17.40;68.30
78649;DHT22;67962;47.310;9.642;2023-07-31T03:44:26;17.40;68.50
78649;DHT22;67962;47.310;9.642;2023-07-31T03:46:52;17.30;68.50
78649;DHT22;67962;47.310;9.642;2023-07-31T03:49:18;17.30;68.30
78649;DHT22;67962;47.310;9.642;2023-07-31T03:51:44;17.30;68.40
78649;DHT22;67962;47.310;9.642;2023-07-31T03:54:10;17.20;68.90
78649;DHT22;67962;47.310;9.642;2023-07-31T03:56:35;17.10;69.00
78649;DHT22;67962;47.310;9.642;2023-07-31T03:59:03;17.20;68.80
78649;DHT22;67962;47.310;9.642;2023-07-31T04:01:28;17.20;68.60
78649;DHT22;67962;47.310;9.642;2023-07-31T04:03:54;17.20;68.70
78649;DHT22;67962;47.310;9.642;2023-07-31T04:06:20;17.20;68.90
78649;DHT22;67962;47.310;9.642;2023-07-31T04:08:45;17.20;68.90
78649;DHT22;67962;47.310;9.642;2023-07-31T04:11:11;17.10;70.00
78649;DHT22;67962;47.310;9.642;2023-07-31T04:13:38;17.10;69.00
78649;DHT22;67962;47.310;9.642;2023-07-31T04:16:04;17.00;68.90
78649;DHT22;67962;47.310;9.642;2023-07-31T04:18:30;16.90;70.00
78649;DHT22;67962;47.310;9.642;2023-07-31T04:20:58;16.90;69.70
78649;DHT22;67962;47.310;9.642;2023-07-31T04:23:24;17.00;69.50
78649;DHT22;67962;47.310;9.642;2023-07-31T04:25:50;16.90;69.70
78649;DHT22;67962;47.310;9.642;2023-07-31T04:28:16;16.90;69.90
78649;DHT22;67962;47.310;9.642;2023-07-31T04:30:42;16.90;70.00
78649;DHT22;67962;47.310;9.642;2023-07-31T04:33:07;16.90;70.10
78649;DHT22;67962;47.310;9.642;2023-07-31T04:35:33;17.00;70.00
78649;DHT22;67962;47.310;9.642;2023-07-31T04:37:59;16.90;70.10
78649;DHT22;67962;47.310;9.642;2023-07-31T04:40:25;16.90;70.20
78649;DHT22;67962;47.310;9.642;2023-07-31T04:42:51;17.00;70.10
78649;DHT22;67962;47.310;9.642;2023-07-31T04:45:16;17.10;69.90
78649;DHT22;67962;47.310;9.642;2023-07-31T04:47:42;17.30;69.50
78649;DHT22;67962;47.310;9.642;2023-07-31T04:50:08;17.40;69.20
78649;DHT22;67962;47.310;9.642;2023-07-31T04:52:34;17.50;68.90
78649;DHT22;67962;47.310;9.642;2023-07-31T04:55:00;17.60;68.70
78649;DHT22;67962;47.310;9.642;2023-07-31T04:57:26;17.70;68.40
78649;DHT22;67962;47.310;9.642;2023-07-31T04:59:51;17.80;68.40
78649;DHT22;67962;47.310;9.642;2023-07-31T05:02:17;17.90;68.80
78649;DHT22;67962;47.310;9.642;2023-07-31T05:04:43;17.90;69.20
78649;DHT22;67962;47.310;9.642;2023-07-31T05:07:08;17.90;69.50
78649;DHT22;67962;47.310;9.642;2023-07-31T05:09:34;17.90;69.50
78649;DHT22;67962;47.310;9.642;2023-07-31T05:12:00;18.00;69.30
78649;DHT22;67962;47.310;9.642;2023-07-31T05:14:26;18.10;69.00
78649;DHT22;67962;47.310;9.642;2023-07-31T05:16:51;18.10;68.80
78649;DHT22;67962;47.310;9.642;2023-07-31T05:19:18;18.20;68.70
78649;DHT22;67962;47.310;9.642;2023-07-31T05:21:43;18.30;68.70
78649;DHT22;67962;47.310;9.642;2023-07-31T05:24:10;18.40;68.60
78649;DHT22;67962;47.310;9.642;2023-07-31T05:26:36;18.40;68.50
78649;DHT22;67962;47.310;9.642;2023-07-31T05:29:01;18.50;68.60
78649;DHT22;67962;47.310;9.642;2023-07-31T05:31:27;18.60;67.90
78649;DHT22;67962;47.310;9.642;2023-07-31T05:33:53;18.70;67.60
78649;DHT22;67962;47.310;9.642;2023-07-31T05:36:19;18.80;67.90
78649;DHT22;67962;47.310;9.642;2023-07-31T05:38:45;18.90;67.40
78649;DHT22;67962;47.310;9.642;2023-07-31T05:41:13;18.90;66.90
78649;DHT22;67962;47.310;9.642;2023-07-31T05:43:39;18.80;66.90
78649;DHT22;67962;47.310;9.642;2023-07-31T05:46:04;18.90;66.70
78649;DHT22;67962;47.310;9.642;2023-07-31T05:48:32;18.90;66.60
78649;DHT22;67962;47.310;9.642;2023-07-31T05:50:59;18.90;66.50
78649;DHT22;67962;47.310;9.642;2023-07-31T05:53:25;19.00;67.00
78649;DHT22;67962;47.310;9.642;2023-07-31T05:55:51;19.00;66.80
78649;DHT22;67962;47.310;9.642;2023-07-31T05:58:16;19.00;66.50
78649;DHT22;67962;47.310;9.642;2023-07-31T06:00:42;19.10;66.30
78649;DHT22;67962;47.310;9.642;2023-07-31T06:03:08;19.30;66.10
78649;DHT22;67962;47.310;9.642;2023-07-31T06:05:34;19.40;65.20
78649;DHT22;67962;47.310;9.642;2023-07-31T06:07:59;19.60;64.70
78649;DHT22;67962;47.310;9.642;2023-07-31T06:10:25;19.60;64.60
78649;DHT22;67962;47.310;9.642;2023-07-31T06:12:51;19.70;64.00
78649;DHT22;67962;47.310;9.642;2023-07-31T06:15:17;19.80;63.20
78649;DHT22;67962;47.310;9.642;2023-07-31T06:17:44;19.80;63.80
78649;DHT22;67962;47.310;9.642;2023-07-31T06:20:10;19.90;63.90
78649;DHT22;67962;47.310;9.642;2023-07-31T06:22:36;19.90;63.60
78649;DHT22;67962;47.310;9.642;2023-07-31T06:25:02;20.00;63.90
78649;DHT22;67962;47.310;9.642;2023-07-31T06:27:28;20.10;63.10
78649;DHT22;67962;47.310;9.642;2023-07-31T06:29:54;20.10;62.30
78649;DHT22;67962;47.310;9.642;2023-07-31T06:32:19;20.20;62.40
78649;DHT22;67962;47.310;9.642;2023-07-31T06:34:45;20.30;62.00
78649;DHT22;67962;47.310;9.642;2023-07-31T06:37:11;20.40;61.20
78649;DHT22;67962;47.310;9.642;2023-07-31T06:39:36;20.30;61.80
78649;DHT22;67962;47.310;9.642;2023-07-31T06:42:03;20.40;62.60
78649;DHT22;67962;47.310;9.642;2023-07-31T06:44:29;20.40;62.30
78649;DHT22;67962;47.310;9.642;2023-07-31T06:46:54;20.40;62.10
78649;DHT22;67962;47.310;9.642;2023-07-31T06:49:20;20.40;62.40
78649;DHT22;67962;47.310;9.642;2023-07-31T06:51:46;20.40;62.50
78649;DHT22;67962;47.310;9.642;2023-07-31T06:54:11;20.40;62.50
78649;DHT22;67962;47.310;9.642;2023-07-31T06:56:37;20.40;62.80
78649;DHT22;67962;47.310;9.642;2023-07-31T06:59:03;20.40;62.20
78649;DHT22;67962;47.310;9.642;2023-07-31T07:01:29;20.50;62.60
78649;DHT22;67962;47.310;9.642;2023-07-31T07:03:54;20.60;62.30
78649;DHT22;67962;47.310;9.642;2023-07-31T07:06:21;20.60;62.30
78649;DHT22;67962;47.310;9.642;2023-07-31T07:08:48;20.70;61.60
78649;DHT22;67962;47.310;9.642;2023-07-31T07:11:13;20.80;61.60
78649;DHT22;67962;47.310;9.642;2023-07-31T07:13:39;20.90;61.30
78649;DHT22;67962;47.310;9.642;2023-07-31T07:16:05;21.10;61.10
78649;DHT22;67962;47.310;9.642;2023-07-31T07:18:31;21.30;60.60
78649;DHT22;67962;47.310;9.642;2023-07-31T07:20:57;21.40;59.50
78649;DHT22;67962;47.310;9.642;2023-07-31T07:23:24;21.50;59.80
78649;DHT22;67962;47.310;9.642;2023-07-31T07:25:50;21.70;60.00
78649;DHT22;67962;47.310;9.642;2023-07-31T07:28:16;21.80;59.10
78649;DHT22;67962;47.310;9.642;2023-07-31T07:30:42;21.80;60.20
78649;DHT22;67962;47.310;9.642;2023-07-31T07:33:08;21.80;59.20
78649;DHT22;67962;47.310;9.642;2023-07-31T07:35:34;21.90;59.30
78649;DHT22;67962;47.310;9.642;2023-07-31T07:38:01;22.00;58.80
78649;DHT22;67962;47.310;9.642;2023-07-31T07:40:27;21.90;59.20
78649;DHT22;67962;47.310;9.642;2023-07-31T07:42:52;21.90;59.20
78649;DHT22;67962;47.310;9.642;2023-07-31T07:45:18;21.90;59.60
78649;DHT22;67962;47.310;9.642;2023-07-31T07:47:44;22.10;60.00
78649;DHT22;67962;47.310;9.642;2023-07-31T07:50:09;22.20;58.70
78649;DHT22;67962;47.310;9.642;2023-07-31T07:52:35;22.40;58.60
78649;DHT22;67962;47.310;9.642;2023-07-31T07:55:01;22.50;58.50
78649;DHT22;67962;47.310;9.642;2023-07-31T07:57:27;22.60;57.40
78649;DHT22;67962;47.310;9.642;2023-07-31T07:59:53;22.50;56.90
78649;DHT22;67962;47.310;9.642;2023-07-31T08:02:18;22.50;57.80
78649;DHT22;67962;47.310;9.642;2023-07-31T08:04:44;22.50;58.00
78649;DHT22;67962;47.310;9.642;2023-07-31T08:07:13;22.60;58.40
78649;DHT22;67962;47.310;9.642;2023-07-31T08:09:40;22.70;57.50
78649;DHT22;67962;47.310;9.642;2023-07-31T08:12:06;22.80;57.40
78649;DHT22;67962;47.310;9.642;2023-07-31T08:14:32;22.80;57.50
78649;DHT22;67962;47.310;9.642;2023-07-31T08:16:57;22.90;57.60
78649;DHT22;67962;47.310;9.642;2023-07-31T08:19:23;23.20;56.10
78649;DHT22;67962;47.310;9.642;2023-07-31T08:21:49;23.80;55.40
78649;DHT22;67962;47.310;9.642;2023-07-31T08:24:15;24.10;52.60
78649;DHT22;67962;47.310;9.642;2023-07-31T08:26:42;24.40;52.60
78649;DHT22;67962;47.310;9.642;2023-07-31T08:29:07;24.40;50.20
78649;DHT22;67962;47.310;9.642;2023-07-31T08:31:33;24.70;51.30
78649;DHT22;67962;47.310;9.642;2023-07-31T08:34:00;25.10;51.00
78649;DHT22;67962;47.310;9.642;2023-07-31T08:36:25;25.60;49.20
78649;DHT22;67962;47.310;9.642;2023-07-31T08:38:51;25.80;48.20
78649;DHT22;67962;47.310;9.642;2023-07-31T08:41:17;25.60;48.10
78649;DHT22;67962;47.310;9.642;2023-07-31T08:43:44;25.50;46.90
78649;DHT22;67962;47.310;9.642;2023-07-31T08:46:10;25.70;48.70
78649;DHT22;67962;47.310;9.642;2023-07-31T08:48:37;25.70;48.60
78649;DHT22;67962;47.310;9.642;2023-07-31T08:51:04;25.90;46.80
78649;DHT22;67962;47.310;9.642;2023-07-31T08:53:29;25.80;46.80
78649;DHT22;67962;47.310;9.642;2023-07-31T08:55:56;25.50;46.00
78649;DHT22;67962;47.310;9.642;2023-07-31T08:58:24;25.30;46.70
78649;DHT22;67962;47.310;9.642;2023-07-31T09:00:51;25.50;48.40
78649;DHT22;67962;47.310;9.642;2023-07-31T09:03:18;25.80;47.90
78649;DHT22;67962;47.310;9.642;2023-07-31T09:05:46;25.80;45.70
78649;DHT22;67962;47.310;9.642;2023-07-31T09:08:13;25.80;44.80
78649;DHT22;67962;47.310;9.642;2023-07-31T09:10:43;25.60;45.70
78649;DHT22;67962;47.310;9.642;2023-07-31T09:13:10;25.40;45.40
78649;DHT22;67962;47.310;9.642;2023-07-31T09:15:36;25.40;47.00
78649;DHT22;67962;47.310;9.642;2023-07-31T09:18:04;25.60;46.80
78649;DHT22;67962;47.310;9.642;2023-07-31T09:20:30;25.70;46.40
78649;DHT22;67962;47.310;9.642;2023-07-31T09:23:08;25.70;46.00
78649;DHT22;67962;47.310;9.642;2023-07-31T09:25:34;25.80;46.20
78649;DHT22;67962;47.310;9.642;2023-07-31T09:28:04;26.00;46.10
78649;DHT22;67962;47.310;9.642;2023-07-31T09:30:30;26.10;45.60
78649;DHT22;67962;47.310;9.642;2023-07-31T09:33:04;26.20;44.80
78649;DHT22;67962;47.310;9.642;2023-07-31T09:35:33;26.20;45.00
78649;DHT22;67962;47.310;9.642;2023-07-31T09:38:01;26.10;44.50
78649;DHT22;67962;47.310;9.642;2023-07-31T09:40:33;26.10;44.70
78649;DHT22;67962;47.310;9.642;2023-07-31T09:43:10;26.10;44.90
78649;DHT22;67962;47.310;9.642;2023-07-31T09:45:41;26.10;44.00
78649;DHT22;67962;47.310;9.642;2023-07-31T09:48:08;26.00;44.00
78649;DHT22;67962;47.310;9.642;2023-07-31T09:50:41;25.80;45.10
78649;DHT22;67962;47.310;9.642;2023-07-31T09:53:07;25.80;45.70
78649;DHT22;67962;47.310;9.642;2023-07-31T09:55:35;25.80;44.80
78649;DHT22;67962;47.310;9.642;2023-07-31T09:58:04;25.90;45.60
78649;DHT22;67962;47.310;9.642;2023-07-31T10:00:31;25.90;46.60
78649;DHT22;67962;47.310;9.642;2023-07-31T10:03:01;26.00;46.10
78649;DHT22;67962;47.310;9.642;2023-07-31T10:08:03;26.10;47.00
78649;DHT22;67962;47.310;9.642;2023-07-31T10:10:30;26.20;45.90
78649;DHT22;67962;47.310;9.642;2023-07-31T10:12:56;26.30;45.40
78649;DHT22;67962;47.310;9.642;2023-07-31T10:15:23;26.60;45.70
78649;DHT22;67962;47.310;9.642;2023-07-31T10:17:50;26.70;43.60
78649;DHT22;67962;47.310;9.642;2023-07-31T10:20:17;26.70;43.20
78649;DHT22;67962;47.310;9.642;2023-07-31T10:22:44;26.80;43.70
78649;DHT22;67962;47.310;9.642;2023-07-31T10:25:12;27.00;43.50
78649;DHT22;67962;47.310;9.642;2023-07-31T10:27:38;27.40;42.40
78649;DHT22;67962;47.310;9.642;2023-07-31T10:30:06;27.70;42.40
78649;DHT22;67962;47.310;9.642;2023-07-31T10:32:33;27.90;41.80
78649;DHT22;67962;47.310;9.642;2023-07-31T10:35:01;27.90;40.50
78649;DHT22;67962;47.310;9.642;2023-07-31T10:37:36;27.80;39.60
78649;DHT22;67962;47.310;9.642;2023-07-31T10:40:04;27.90;39.80
78649;DHT22;67962;47.310;9.642;2023-07-31T10:42:38;27.90;40.20
78649;DHT22;67962;47.310;9.642;2023-07-31T10:45:07;28.00;38.60
78649;DHT22;67962;47.310;9.642;2023-07-31T10:47:43;28.00;39.60
78649;DHT22;67962;47.310;9.642;2023-07-31T10:50:20;28.30;39.90
78649;DHT22;67962;47.310;9.642;2023-07-31T10:52:48;28.30;39.50
78649;DHT22;67962;47.310;9.642;2023-07-31T10:55:32;28.20;41.30
78649;DHT22;67962;47.310;9.642;2023-07-31T10:58:12;28.50;42.20
78649;DHT22;67962;47.310;9.642;2023-07-31T11:00:43;28.70;40.30
78649;DHT22;67962;47.310;9.642;2023-07-31T11:03:18;28.80;39.60
78649;DHT22;67962;47.310;9.642;2023-07-31T11:08:26;29.00;40.20
78649;DHT22;67962;47.310;9.642;2023-07-31T11:11:13;29.20;40.10
78649;DHT22;67962;47.310;9.642;2023-07-31T11:13:41;29.20;37.60
78649;DHT22;67962;47.310;9.642;2023-07-31T11:16:08;29.30;39.10
78649;DHT22;67962;47.310;9.642;2023-07-31T11:18:34;29.40;39.20
78649;DHT22;67962;47.310;9.642;2023-07-31T11:21:00;29.30;37.20
78649;DHT22;67962;47.310;9.642;2023-07-31T11:23:25;29.20;35.00
78649;DHT22;67962;47.310;9.642;2023-07-31T11:25:51;29.10;35.80
78649;DHT22;67962;47.310;9.642;2023-07-31T11:28:18;29.10;36.40
78649;DHT22;67962;47.310;9.642;2023-07-31T11:30:45;29.30;35.30
78649;DHT22;67962;47.310;9.642;2023-07-31T11:33:12;29.50;35.40
78649;DHT22;67962;47.310;9.642;2023-07-31T11:35:46;29.80;36.20
78649;DHT22;67962;47.310;9.642;2023-07-31T11:38:27;30.20;37.60
78649;DHT22;67962;47.310;9.642;2023-07-31T11:40:55;30.40;36.40
78649;DHT22;67962;47.310;9.642;2023-07-31T11:43:21;30.50;36.10
78649;DHT22;67962;47.310;9.642;2023-07-31T11:45:52;30.60;35.50
78649;DHT22;67962;47.310;9.642;2023-07-31T11:48:22;30.50;34.30
78649;DHT22;67962;47.310;9.642;2023-07-31T11:50:52;30.10;34.90
78649;DHT22;67962;47.310;9.642;2023-07-31T11:53:23;29.80;36.20
78649;DHT22;67962;47.310;9.642;2023-07-31T11:55:49;29.60;36.70
78649;DHT22;67962;47.310;9.642;2023-07-31T11:58:16;29.60;37.40
78649;DHT22;67962;47.310;9.642;2023-07-31T12:00:43;29.70;36.60
78649;DHT22;67962;47.310;9.642;2023-07-31T12:03:08;29.70;36.20
78649;DHT22;67962;47.310;9.642;2023-07-31T12:05:36;29.60;33.80
78649;DHT22;67962;47.310;9.642;2023-07-31T12:08:11;29.40;32.20
78649;DHT22;67962;47.310;9.642;2023-07-31T12:10:38;29.20;33.80
78649;DHT22;67962;47.310;9.642;2023-07-31T12:13:10;29.50;34.80
78649;DHT22;67962;47.310;9.642;2023-07-31T12:15:43;29.50;35.60
78649;DHT22;67962;47.310;9.642;2023-07-31T12:18:13;29.60;36.70
78649;DHT22;67962;47.310;9.642;2023-07-31T12:21:09;29.50;34.90
78649;DHT22;67962;47.310;9.642;2023-07-31T12:23:37;29.80;36.60
78649;DHT22;67962;47.310;9.642;2023-07-31T12:26:11;30.00;37.60
78649;DHT22;67962;47.310;9.642;2023-07-31T12:28:45;30.10;37.00
78649;DHT22;67962;47.310;9.642;2023-07-31T12:31:13;30.10;37.80
78649;DHT22;67962;47.310;9.642;2023-07-31T12:33:40;29.90;37.60
78649;DHT22;67962;47.310;9.642;2023-07-31T12:36:14;29.80;37.60
78649;DHT22;67962;47.310;9.642;2023-07-31T12:38:41;29.50;36.30
78649;DHT22;67962;47.310;9.642;2023-07-31T12:41:07;29.40;37.50
78649;DHT22;67962;47.310;9.642;2023-07-31T12:43:37;29.00;37.20
78649;DHT22;67962;47.310;9.642;2023-07-31T12:46:04;29.00;38.30
78649;DHT22;67962;47.310;9.642;2023-07-31T12:48:30;29.20;39.60
78649;DHT22;67962;47.310;9.642;2023-07-31T12:50:56;29.20;36.70
78649;DHT22;67962;47.310;9.642;2023-07-31T12:53:22;29.20;37.70
78649;DHT22;67962;47.310;9.642;2023-07-31T12:55:48;29.20;37.00
78649;DHT22;67962;47.310;9.642;2023-07-31T12:58:13;29.50;40.20
78649;DHT22;67962;47.310;9.642;2023-07-31T13:00:39;29.50;37.60
78649;DHT22;67962;47.310;9.642;2023-07-31T13:03:05;29.60;39.00
78649;DHT22;67962;47.310;9.642;2023-07-31T13:05:31;29.50;37.60
78649;DHT22;67962;47.310;9.642;2023-07-31T13:07:57;29.30;37.90
78649;DHT22;67962;47.310;9.642;2023-07-31T13:10:23;29.00;36.90
78649;DHT22;67962;47.310;9.642;2023-07-31T13:12:49;28.90;38.10
78649;DHT22;67962;47.310;9.642;2023-07-31T13:15:15;28.70;38.40
78649;DHT22;67962;47.310;9.642;2023-07-31T13:17:41;28.40;35.50
78649;DHT22;67962;47.310;9.642;2023-07-31T13:20:07;28.60;36.10
78649;DHT22;67962;47.310;9.642;2023-07-31T13:22:33;29.00;36.80
78649;DHT22;67962;47.310;9.642;2023-07-31T13:24:59;29.20;37.30
78649;DHT22;67962;47.310;9.642;2023-07-31T13:27:25;29.50;36.20
78649;DHT22;67962;47.310;9.642;2023-07-31T13:29:53;29.40;36.00
78649;DHT22;67962;47.310;9.642;2023-07-31T13:32:20;29.20;36.20
78649;DHT22;67962;47.310;9.642;2023-07-31T13:34:46;29.00;36.10
78649;DHT22;67962;47.310;9.642;2023-07-31T13:37:12;28.70;38.80
78649;DHT22;67962;47.310;9.642;2023-07-31T13:39:38;28.60;39.60
78649;DHT22;67962;47.310;9.642;2023-07-31T13:42:05;28.70;40.00
78649;DHT22;67962;47.310;9.642;2023-07-31T13:44:37;28.80;39.30
78649;DHT22;67962;47.310;9.642;2023-07-31T13:47:03;29.00;36.90
78649;DHT22;67962;47.310;9.642;2023-07-31T13:49:29;29.00;36.60
78649;DHT22;67962;47.310;9.642;2023-07-31T13:51:55;28.90;36.00
78649;DHT22;67962;47.310;9.642;2023-07-31T13:54:22;28.70;36.70
78649;DHT22;67962;47.310;9.642;2023-07-31T13:56:48;28.70;37.90
78649;DHT22;67962;47.310;9.642;2023-07-31T13:59:14;28.70;38.70
78649;DHT22;67962;47.310;9.642;2023-07-31T14:01:41;28.60;37.90
78649;DHT22;67962;47.310;9.642;2023-07-31T14:04:07;28.50;34.70
78649;DHT22;67962;47.310;9.642;2023-07-31T14:06:33;28.50;35.20
78649;DHT22;67962;47.310;9.642;2023-07-31T14:08:58;28.50;36.50
78649;DHT22;67962;47.310;9.642;2023-07-31T14:11:24;28.70;36.70
78649;DHT22;67962;47.310;9.642;2023-07-31T14:13:50;28.80;36.80
78649;DHT22;67962;47.310;9.642;2023-07-31T14:16:16;28.80;37.30
78649;DHT22;67962;47.310;9.642;2023-07-31T14:18:42;28.70;36.90
78649;DHT22;67962;47.310;9.642;2023-07-31T14:21:08;28.50;38.50
78649;DHT22;67962;47.310;9.642;2023-07-31T14:23:34;28.40;36.60
78649;DHT22;67962;47.310;9.642;2023-07-31T14:26:00;28.30;37.00
78649;DHT22;67962;47.310;9.642;2023-07-31T14:28:25;28.10;35.40
78649;DHT22;67962;47.310;9.642;2023-07-31T14:30:51;27.90;38.00
78649;DHT22;67962;47.310;9.642;2023-07-31T14:33:17;27.70;39.20
78649;DHT22;67962;47.310;9.642;2023-07-31T14:35:43;27.60;39.20
78649;DHT22;67962;47.310;9.642;2023-07-31T14:38:08;27.60;40.60
78649;DHT22;67962;47.310;9.642;2023-07-31T14:40:34;27.50;41.50
78649;DHT22;67962;47.310;9.642;2023-07-31T14:43:00;27.30;40.70
78649;DHT22;67962;47.310;9.642;2023-07-31T14:45:25;27.20;40.50
78649;DHT22;67962;47.310;9.642;2023-07-31T14:47:51;27.10;40.30
78649;DHT22;67962;47.310;9.642;2023-07-31T14:50:17;27.10;40.00
78649;DHT22;67962;47.310;9.642;2023-07-31T14:52:42;27.20;40.70
78649;DHT22;67962;47.310;9.642;2023-07-31T14:55:08;27.20;40.20
78649;DHT22;67962;47.310;9.642;2023-07-31T14:57:35;27.10;40.90
78649;DHT22;67962;47.310;9.642;2023-07-31T15:00:00;27.20;40.80
78649;DHT22;67962;47.310;9.642;2023-07-31T15:02:26;27.20;40.80
78649;DHT22;67962;47.310;9.642;2023-07-31T15:04:53;27.20;40.80
78649;DHT22;67962;47.310;9.642;2023-07-31T15:07:18;27.10;39.90
78649;DHT22;67962;47.310;9.642;2023-07-31T15:09:44;27.10;39.70
78649;DHT22;67962;47.310;9.642;2023-07-31T15:12:10;27.10;40.80
78649;DHT22;67962;47.310;9.642;2023-07-31T15:14:35;27.10;41.10
78649;DHT22;67962;47.310;9.642;2023-07-31T15:17:01;27.20;41.60
78649;DHT22;67962;47.310;9.642;2023-07-31T15:19:27;27.10;41.20
78649;DHT22;67962;47.310;9.642;2023-07-31T15:21:54;27.00;42.00
78649;DHT22;67962;47.310;9.642;2023-07-31T15:24:20;26.80;40.90
78649;DHT22;67962;47.310;9.642;2023-07-31T15:26:46;26.80;40.20
78649;DHT22;67962;47.310;9.642;2023-07-31T15:29:12;26.80;41.80
78649;DHT22;67962;47.310;9.642;2023-07-31T15:31:43;26.70;44.10
78649;DHT22;67962;47.310;9.642;2023-07-31T15:34:09;26.50;44.90
78649;DHT22;67962;47.310;9.642;2023-07-31T15:36:35;26.40;45.60
78649;DHT22;67962;47.310;9.642;2023-07-31T15:39:00;26.40;44.70
78649;DHT22;67962;47.310;9.642;2023-07-31T15:41:26;26.30;43.10